Time;durP1;ratioP1;P1;durP2;ratioP2;P2;SDS_P1;SDS_P2;PMS_P1;PMS_P2;Temp;Humidity;BMP_temperature;BMP_pressure;BME280_temperature;BME280_humidity;BME280_pressure;Samples;Min_cycle;Max_cycle;Signal;HPM_P1;HPM_P2
2022/07/16 00:02:41;;;;;;;226.73;215.33;;;;;;;17.64;49.83;97108.28;5071974;28;20308;-66
2022/07/16 00:05:07;;;;;;;145.57;137.93;;;;;;;17.50;50.37;97105.31;5072601;28;20685;-66
2022/07/16 00:07:33;;;;;;;92.60;87.87;;;;;;;17.42;50.51;97104.00;5072751;28;20264;-65
2022/07/16 00:09:58;;;;;;;42.77;40.47;;;;;;;17.42;50.54;97100.53;5072228;28;20239;-66
2022/07/16 00:12:25;;;;;;;31.47;29.43;;;;;;;17.48;50.20;97106.66;5072656;28;20271;-65
2022/07/16 00:14:50;;;;;;;34.07;32.07;;;;;;;17.42;50.83;97109.28;5072756;28;20238;-66
2022/07/16 00:17:16;;;;;;;45.53;42.93;;;;;;;17.38;50.66;97105.59;5072641;28;20599;-66
2022/07/16 00:19:42;;;;;;;58.53;55.10;;;;;;;17.42;50.54;97105.84;5072043;28;20716;-65
2022/07/16 00:22:07;;;;;;;70.80;66.90;;;;;;;17.39;50.86;97106.34;5072148;28;20215;-66
2022/07/16 00:24:32;;;;;;;84.43;79.87;;;;;;;17.42;50.94;97108.50;5072322;28;20543;-65
2022/07/16 00:26:58;;;;;;;74.97;70.77;;;;;;;17.33;51.10;97102.13;5072747;28;20185;-65
2022/07/16 00:29:23;;;;;;;55.30;51.87;;;;;;;17.33;50.96;97110.06;5071891;28;20261;-66
2022/07/16 00:31:49;;;;;;;53.33;50.33;;;;;;;17.28;50.94;97104.75;5072181;28;20268;-65
2022/07/16 00:34:17;;;;;;;39.63;37.33;;;;;;;17.29;51.16;97101.03;5072374;28;20235;-66
2022/07/16 00:36:43;;;;;;;33.17;31.30;;;;;;;17.21;51.29;97098.91;5072564;28;20203;-66
2022/07/16 00:39:10;;;;;;;35.67;33.67;;;;;;;17.10;51.42;97107.88;5072216;28;20205;-66
2022/07/16 00:41:39;;;;;;;34.87;32.70;;;;;;;17.00;51.83;97098.03;5071905;28;20268;-65
2022/07/16 00:44:07;;;;;;;36.47;34.13;;;;;;;16.99;51.79;97109.69;5072434;28;20182;-65
2022/07/16 00:46:34;;;;;;;35.57;33.57;;;;;;;16.92;51.89;97104.63;5053243;28;20185;-65
2022/07/16 00:48:59;;;;;;;40.30;37.73;;;;;;;16.85;52.22;97103.28;5072269;28;20284;-65
2022/07/16 00:51:26;;;;;;;47.17;44.47;;;;;;;16.75;52.39;97098.72;5072238;28;20608;-64
2022/07/16 00:53:53;;;;;;;56.83;53.63;;;;;;;16.68;52.64;97108.75;5071754;28;20300;-65
2022/07/16 00:56:18;;;;;;;65.83;62.13;;;;;;;16.83;52.11;97106.16;5053754;28;20228;-65
2022/07/16 00:58:45;;;;;;;65.03;61.50;;;;;;;16.87;52.46;97107.25;5054222;28;20225;-65
2022/07/16 01:01:12;;;;;;;68.10;64.43;;;;;;;16.96;52.15;97100.41;5071964;28;20580;-65
2022/07/16 01:03:39;;;;;;;81.30;76.97;;;;;;;16.89;52.16;97104.34;5070991;28;20185;-65
2022/07/16 01:06:06;;;;;;;99.63;94.43;;;;;;;16.77;52.53;97109.06;5074530;28;20207;-65
2022/07/16 01:08:36;;;;;;;110.67;104.77;;;;;;;16.73;52.71;97103.47;5075331;28;20200;-65
2022/07/16 01:11:04;;;;;;;117.40;111.17;;;;;;;16.59;52.69;97105.00;5075660;28;20232;-65
2022/07/16 01:13:30;;;;;;;128.33;121.63;;;;;;;16.53;53.02;97103.34;5075274;28;20197;-65
2022/07/16 01:15:55;;;;;;;139.10;131.70;;;;;;;16.61;52.90;97101.03;5057807;28;20174;-65
2022/07/16 01:18:21;;;;;;;132.80;125.93;;;;;;;16.57;52.88;97091.19;5074943;28;20204;-65
2022/07/16 01:20:46;;;;;;;140.87;133.17;;;;;;;16.49;53.13;97096.97;5057736;28;20204;-65
2022/07/16 01:23:19;;;;;;;143.00;135.70;;;;;;;16.46;52.86;97098.28;5075300;28;20355;-65
2022/07/16 01:25:44;;;;;;;147.63;139.80;;;;;;;16.42;52.83;97097.22;5057293;28;20184;-66
2022/07/16 01:28:09;;;;;;;140.23;132.73;;;;;;;16.37;53.28;97099.81;5075523;28;20197;-65
2022/07/16 01:30:35;;;;;;;131.23;124.40;;;;;;;16.39;53.19;97099.53;5075583;28;20188;-65
2022/07/16 01:33:00;;;;;;;110.63;104.63;;;;;;;16.29;53.44;97105.56;5074825;28;20669;-65
2022/07/16 01:35:25;;;;;;;78.17;73.87;;;;;;;16.43;53.23;97105.94;5075255;28;20185;-65
2022/07/16 01:37:51;;;;;;;63.07;59.63;;;;;;;16.13;53.83;97109.97;5075086;28;20236;-65
2022/07/16 01:40:16;;;;;;;53.23;50.33;;;;;;;16.18;53.66;97109.22;5057324;28;20612;-65
2022/07/16 01:42:45;;;;;;;43.43;40.93;;;;;;;16.23;53.77;97109.25;5075251;28;20631;-64
2022/07/16 01:45:10;;;;;;;50.03;47.20;;;;;;;16.20;53.60;97115.84;5075088;28;20653;-66
2022/07/16 01:47:35;;;;;;;79.23;74.77;;;;;;;16.16;53.62;97112.09;5074135;28;20185;-65
2022/07/16 01:50:01;;;;;;;93.90;88.60;;;;;;;16.23;53.62;97112.69;5057104;28;20254;-65
2022/07/16 01:52:26;;;;;;;125.00;118.30;;;;;;;16.32;53.29;97106.94;5074652;28;20191;-66
2022/07/16 01:54:53;;;;;;;140.13;132.43;;;;;;;16.18;53.99;97110.00;5074833;28;20245;-65
2022/07/16 01:57:20;;;;;;;132.87;125.57;;;;;;;16.15;53.68;97105.25;5074031;28;20205;-66
2022/07/16 01:59:45;;;;;;;145.83;137.93;;;;;;;16.16;53.48;97106.03;5074177;28;20605;-66
2022/07/16 02:02:12;;;;;;;128.30;121.40;;;;;;;16.11;53.86;97106.78;5056569;28;20224;-66
2022/07/16 02:04:38;;;;;;;128.83;122.03;;;;;;;16.11;53.67;97105.97;5055871;28;20312;-66
2022/07/16 02:07:03;;;;;;;118.97;112.40;;;;;;;16.02;53.91;97105.66;5074587;28;20638;-65
2022/07/16 02:09:29;;;;;;;108.63;102.83;;;;;;;16.08;53.77;97109.94;5074227;28;20239;-65
2022/07/16 02:11:54;;;;;;;100.47;95.17;;;;;;;16.06;53.67;97106.75;5074065;28;20265;-66
2022/07/16 02:14:20;;;;;;;78.87;74.70;;;;;;;16.05;53.90;97110.44;5074739;28;20189;-66
2022/07/16 02:16:45;;;;;;;57.90;54.50;;;;;;;16.15;53.64;97102.59;5073921;28;20174;-66
2022/07/16 02:19:10;;;;;;;49.63;46.50;;;;;;;16.18;53.43;97104.72;5055675;28;20236;-66
2022/07/16 02:21:36;;;;;;;41.97;39.47;;;;;;;15.97;53.95;97102.19;5074393;28;20272;-66
2022/07/16 02:24:02;;;;;;;33.70;31.53;;;;;;;16.08;53.85;97102.00;5056437;28;20200;-66
2022/07/16 02:26:28;;;;;;;32.87;30.83;;;;;;;16.11;53.85;97103.31;5074414;28;20189;-66
2022/07/16 02:28:53;;;;;;;34.73;32.77;;;;;;;16.10;53.92;97107.84;5074525;28;20184;-66
2022/07/16 02:31:19;;;;;;;33.67;31.67;;;;;;;15.97;53.85;97108.25;5074054;28;20178;-66
2022/07/16 02:33:45;;;;;;;37.30;35.20;;;;;;;16.03;54.06;97111.75;5073948;28;20205;-66
2022/07/16 02:36:11;;;;;;;37.43;35.13;;;;;;;15.99;54.20;97103.53;5074516;28;20334;-66
2022/07/16 02:38:36;;;;;;;32.33;30.43;;;;;;;16.03;54.01;97098.53;5074209;28;20209;-66
2022/07/16 02:41:02;;;;;;;25.23;23.50;;;;;;;15.84;54.34;97099.94;5073989;28;20189;-65
2022/07/16 02:43:27;;;;;;;20.77;19.57;;;;;;;15.74;54.93;97098.81;5056333;28;20191;-65
2022/07/16 02:45:52;;;;;;;35.37;33.43;;;;;;;15.76;54.71;97102.03;5073840;28;20186;-65
2022/07/16 02:48:18;;;;;;;60.63;57.17;;;;;;;15.76;54.62;97096.72;5073868;28;20312;-65
2022/07/16 02:50:43;;;;;;;120.50;114.13;;;;;;;15.69;55.11;97109.34;5073532;28;20259;-65
2022/07/16 02:53:08;;;;;;;126.00;119.23;;;;;;;15.72;54.98;97102.75;5073854;28;20334;-65
2022/07/16 02:55:34;;;;;;;131.67;124.67;;;;;;;15.80;54.60;97099.66;5073572;28;20286;-65
2022/07/16 02:58:00;;;;;;;133.70;126.43;;;;;;;15.62;55.02;97100.81;5073095;28;20201;-65
2022/07/16 03:00:25;;;;;;;143.57;135.97;;;;;;;15.71;54.80;97101.97;5073510;28;20186;-66
2022/07/16 03:02:51;;;;;;;146.57;138.73;;;;;;;15.66;54.93;97107.19;5072904;28;20200;-65
2022/07/16 03:05:17;;;;;;;131.33;124.00;;;;;;;15.69;54.66;97112.00;5072677;28;20223;-66
2022/07/16 03:07:42;;;;;;;122.07;115.43;;;;;;;15.49;55.19;97105.69;5072942;28;20251;-66
2022/07/16 03:10:10;;;;;;;115.30;109.00;;;;;;;15.47;55.12;97107.78;5073166;28;20173;-66
2022/07/16 03:12:36;;;;;;;93.00;88.00;;;;;;;15.42;55.35;97113.00;5073100;28;20641;-66
2022/07/16 03:15:03;;;;;;;52.03;49.20;;;;;;;15.49;55.21;97111.75;5073167;28;20185;-66
2022/07/16 03:17:29;;;;;;;31.67;29.77;;;;;;;15.45;55.66;97112.50;5072977;28;20563;-66
2022/07/16 03:19:54;;;;;;;36.20;34.23;;;;;;;15.26;56.03;97110.22;5072994;28;20185;-65
2022/07/16 03:22:19;;;;;;;44.07;41.63;;;;;;;15.22;56.02;97111.75;5073209;28;20697;-66
2022/07/16 03:24:45;;;;;;;58.37;55.13;;;;;;;15.39;55.31;97109.81;5073230;28;20189;-66
2022/07/16 03:27:11;;;;;;;45.57;42.90;;;;;;;15.22;56.17;97111.75;5073240;28;20184;-66
2022/07/16 03:29:36;;;;;;;56.80;53.60;;;;;;;15.19;57.05;97114.88;5072911;28;20185;-66
2022/07/16 03:32:02;;;;;;;69.70;65.80;;;;;;;15.26;57.03;97117.34;5072711;28;20501;-65
2022/07/16 03:34:28;;;;;;;53.63;50.60;;;;;;;15.09;58.00;97111.34;5072872;28;20630;-65
2022/07/16 03:36:54;;;;;;;37.20;35.07;;;;;;;15.14;57.96;97116.69;5073056;28;20267;-66
2022/07/16 03:39:19;;;;;;;40.43;38.20;;;;;;;14.97;58.64;97108.81;5072947;28;20749;-66
2022/07/16 03:41:45;;;;;;;35.83;33.83;;;;;;;14.99;58.70;97115.44;5072872;28;20200;-66
2022/07/16 03:44:12;;;;;;;27.80;26.00;;;;;;;14.93;59.04;97111.13;5072953;28;20264;-67
2022/07/16 03:46:38;;;;;;;23.80;22.17;;;;;;;15.02;59.29;97116.81;5072561;28;20182;-66
2022/07/16 03:49:04;;;;;;;24.57;22.87;;;;;;;14.96;59.81;97115.16;5073152;28;20196;-66
2022/07/16 03:51:29;;;;;;;26.60;24.87;;;;;;;14.92;60.01;97106.13;5072294;28;20195;-66
2022/07/16 03:53:55;;;;;;;25.17;23.33;;;;;;;15.01;60.14;97109.13;5054936;28;20254;-66
2022/07/16 03:56:21;;;;;;;24.23;22.83;;;;;;;15.05;60.24;97115.50;5072797;28;20177;-66
2022/07/16 03:58:46;;;;;;;27.40;25.57;;;;;;;15.17;60.27;97118.81;5072492;28;20263;-66
2022/07/16 04:01:12;;;;;;;25.93;24.23;;;;;;;15.32;59.96;97124.28;5054554;28;20215;-66
2022/07/16 04:03:38;;;;;;;23.90;22.37;;;;;;;15.62;59.01;97129.09;5071338;28;20193;-65
2022/07/16 04:06:04;;;;;;;88.53;83.63;;;;;;;15.92;58.45;97128.56;5072604;28;20184;-67
2022/07/16 04:08:30;;;;;;;126.97;119.70;;;;;;;16.03;57.87;97135.53;5072640;28;20614;-66
2022/07/16 04:10:56;;;;;;;96.57;91.20;;;;;;;16.64;56.00;97131.50;5072364;28;20541;-65
2022/07/16 04:13:21;;;;;;;126.27;119.30;;;;;;;16.61;56.06;97129.34;5072480;28;20197;-67
2022/07/16 04:15:47;;;;;;;80.67;76.20;;;;;;;16.64;56.16;97128.84;5054470;28;20181;-67
2022/07/16 04:18:12;;;;;;;70.93;67.10;;;;;;;16.89;55.36;97144.84;5072528;28;20208;-66
2022/07/16 04:20:38;;;;;;;158.40;150.20;;;;;;;16.86;54.91;97139.28;5072612;28;20184;-66
2022/07/16 04:23:03;;;;;;;89.47;84.63;;;;;;;17.34;53.72;97146.09;5072146;28;20193;-66
2022/07/16 04:25:29;;;;;;;53.30;50.40;;;;;;;17.48;53.30;97149.84;5072322;28;20185;-66
2022/07/16 04:27:54;;;;;;;38.03;35.90;;;;;;;17.48;53.22;97143.75;5072301;28;20292;-66
2022/07/16 04:30:20;;;;;;;36.75;34.30;;;;;;;17.76;52.08;97149.41;5071938;28;20217;-66
2022/07/16 04:32:45;;;;;;;30.05;28.10;;;;;;;17.64;52.70;97151.50;5071987;28;20583;-66
2022/07/16 04:35:13;;;;;;;28.73;27.10;;;;;;;17.55;52.34;97149.63;5072364;28;20225;-66
2022/07/16 04:37:38;;;;;;;27.10;25.50;;;;;;;18.34;50.81;97152.59;5071842;28;20216;-66
2022/07/16 04:40:05;;;;;;;25.92;24.40;;;;;;;18.19;51.23;97145.47;5072028;28;20177;-67
2022/07/16 04:42:31;;;;;;;22.52;21.30;;;;;;;18.11;51.09;97150.50;5075692;28;20192;-67
2022/07/16 04:44:56;;;;;;;21.52;20.10;;;;;;;18.15;51.16;97155.03;5076045;28;20189;-66
2022/07/16 04:47:22;;;;;;;21.58;20.33;;;;;;;18.57;49.64;97149.44;5075911;28;20196;-67
2022/07/16 04:49:47;;;;;;;25.92;24.42;;;;;;;18.74;48.81;97145.69;5075720;28;20193;-66
2022/07/16 04:52:13;;;;;;;19.13;17.83;;;;;;;18.89;49.57;97149.06;5075856;28;20189;-66
2022/07/16 04:54:38;;;;;;;20.88;19.50;;;;;;;19.05;48.67;97149.84;5075992;28;20228;-66
2022/07/16 04:57:04;;;;;;;21.30;19.75;;;;;;;18.65;49.23;97156.06;5076155;28;20721;-66
2022/07/16 04:59:29;;;;;;;19.13;17.93;;;;;;;18.71;48.71;97155.00;5075469;28;20199;-67
2022/07/16 05:02:56;;;;;;;21.90;20.67;;;;;;;18.99;48.72;97153.59;5074753;28;20193;-67
2022/07/16 05:04:40;;;;;;;35.55;33.47;;;;;;;19.33;47.45;97156.38;5075369;28;20189;-67
2022/07/16 05:07:05;;;;;;;46.13;43.47;;;;;;;19.64;47.08;97149.84;5075857;28;20196;-66
2022/07/16 05:09:31;;;;;;;80.32;76.20;;;;;;;20.13;45.82;97151.63;5056941;28;20277;-67
2022/07/16 05:11:56;;;;;;;62.22;58.90;;;;;;;20.55;45.16;97148.38;5075734;28;20638;-66
2022/07/16 05:14:21;;;;;;;373.77;354.83;;;;;;;20.57;44.29;97159.53;5075511;28;20185;-66
2022/07/16 05:16:47;;;;;;;564.03;534.72;;;;;;;20.29;44.98;97161.88;5075915;28;20189;-66
2022/07/16 05:19:12;;;;;;;564.25;535.95;;;;;;;20.70;44.18;97156.22;5074997;28;20209;-66
2022/07/16 05:21:37;;;;;;;361.38;343.35;;;;;;;20.73;44.09;97161.75;5075413;28;20188;-66
2022/07/16 05:24:03;;;;;;;332.55;316.08;;;;;;;20.92;43.64;97167.19;5074690;28;20177;-67
2022/07/16 05:26:28;;;;;;;286.92;272.60;;;;;;;20.70;43.31;97166.88;5075923;28;20303;-66
2022/07/16 05:28:54;;;;;;;188.35;178.98;;;;;;;21.24;41.51;97158.56;5075519;28;20181;-67
2022/07/16 05:31:19;;;;;;;160.18;152.07;;;;;;;21.03;41.71;97167.84;5075654;28;20181;-66
2022/07/16 05:33:44;;;;;;;124.05;117.68;;;;;;;21.61;40.96;97163.19;5075397;28;20268;-66
2022/07/16 05:36:10;;;;;;;101.38;96.00;;;;;;;21.74;40.60;97167.78;5075926;28;20278;-66
2022/07/16 05:38:35;;;;;;;93.40;88.60;;;;;;;20.59;44.24;97170.72;5057329;28;20259;-66
2022/07/16 05:41:01;;;;;;;213.15;202.77;;;;;;;21.03;43.77;97167.84;5074944;28;20196;-66
2022/07/16 05:43:26;;;;;;;233.70;222.05;;;;;;;20.36;44.84;97169.59;5074995;28;20181;-66
2022/07/16 05:45:52;;;;;;;262.15;249.55;;;;;;;20.85;43.59;97174.72;5075404;28;20196;-66
2022/07/16 05:48:17;;;;;;;277.95;264.25;;;;;;;21.82;41.25;97171.69;5075344;28;20238;-67
2022/07/16 05:50:42;;;;;;;260.95;248.45;;;;;;;21.38;42.18;97172.00;5075048;28;20197;-66
2022/07/16 05:53:08;;;;;;;222.57;211.73;;;;;;;22.17;41.38;97179.22;5073818;28;20601;-66
2022/07/16 05:55:33;;;;;;;131.85;125.15;;;;;;;22.31;40.10;97176.56;5074606;28;20300;-66
2022/07/16 05:57:58;;;;;;;127.85;121.68;;;;;;;21.89;41.50;97169.47;5074622;28;20661;-67
2022/07/16 06:00:24;;;;;;;137.18;130.27;;;;;;;20.92;44.04;97169.84;5074516;28;20268;-66
2022/07/16 06:02:49;;;;;;;211.98;202.02;;;;;;;21.17;44.55;97171.47;5074065;28;20185;-66
2022/07/16 06:05:15;;;;;;;204.00;194.07;;;;;;;22.09;42.54;97173.72;5074516;28;20220;-67
2022/07/16 06:07:40;;;;;;;206.43;196.40;;;;;;;22.37;41.97;97175.41;5074481;28;20193;-66
2022/07/16 06:10:06;;;;;;;239.00;227.70;;;;;;;22.03;42.09;97178.34;5074033;28;20647;-65
2022/07/16 06:12:31;;;;;;;245.52;233.63;;;;;;;22.38;41.67;97177.00;5056834;28;20185;-65
2022/07/16 06:14:56;;;;;;;245.65;234.15;;;;;;;22.68;40.80;97181.03;5056622;28;20264;-65
2022/07/16 06:17:22;;;;;;;229.93;219.23;;;;;;;21.72;42.52;97179.84;5074235;28;20263;-67
2022/07/16 06:19:47;;;;;;;226.93;216.35;;;;;;;22.44;41.26;97181.16;5074011;28;20652;-66
2022/07/16 06:22:12;;;;;;;193.68;184.45;;;;;;;22.46;40.85;97184.31;5074977;28;20510;-66
2022/07/16 06:24:38;;;;;;;168.95;160.82;;;;;;;22.71;40.80;97175.09;5056518;28;20182;-66
2022/07/16 06:27:03;;;;;;;170.23;162.02;;;;;;;21.56;43.57;97179.25;5074599;28;20192;-66
2022/07/16 06:29:29;;;;;;;164.25;156.15;;;;;;;21.42;43.94;97181.03;5074352;28;20264;-66
2022/07/16 06:31:55;;;;;;;225.80;215.00;;;;;;;22.21;42.51;97184.75;5074651;28;20589;-67
2022/07/16 06:34:20;;;;;;;118.55;112.55;;;;;;;20.75;48.01;97191.59;5074243;28;20189;-66
2022/07/16 06:36:46;;;;;;;131.45;124.68;;;;;;;20.88;48.62;97189.34;5073950;28;20192;-66
2022/07/16 06:39:11;;;;;;;134.98;128.23;;;;;;;20.48;49.34;97193.19;5074243;28;20561;-66
2022/07/16 06:41:37;;;;;;;222.27;210.88;;;;;;;21.39;47.75;97194.94;5074184;28;20192;-66
2022/07/16 06:44:09;;;;;;;286.52;271.65;;;;;;;21.12;47.96;97196.25;5073832;28;20185;-64
2022/07/16 06:46:35;;;;;;;315.63;298.80;;;;;;;21.44;47.23;97193.00;5074068;28;20499;-65
2022/07/16 06:49:00;;;;;;;344.77;326.10;;;;;;;21.25;47.78;97202.03;5073978;28;20216;-64
2022/07/16 06:51:26;;;;;;;405.48;383.42;;;;;;;20.99;47.74;97204.16;5073827;28;20208;-64
2022/07/16 06:53:52;;;;;;;404.77;382.83;;;;;;;21.69;46.47;97199.88;5073647;28;20742;-63
2022/07/16 06:56:17;;;;;;;450.00;425.50;;;;;;;21.47;47.44;97195.09;5072882;28;20177;-63
2022/07/16 06:58:42;;;;;;;485.63;458.30;;;;;;;21.60;47.19;97195.47;5073172;28;20528;-64
2022/07/16 07:01:08;;;;;;;477.35;451.15;;;;;;;21.70;46.94;97198.00;5055817;28;20512;-65
2022/07/16 07:03:34;;;;;;;478.38;451.73;;;;;;;20.93;48.49;97200.75;5072502;28;20264;-64
2022/07/16 07:05:59;;;;;;;478.15;451.70;;;;;;;21.13;48.05;97213.06;5073635;28;20279;-65
2022/07/16 07:08:25;;;;;;;437.45;413.73;;;;;;;22.27;45.26;97205.75;5054736;28;20193;-64
2022/07/16 07:10:50;;;;;;;376.20;356.25;;;;;;;22.55;44.81;97213.84;5073118;28;20206;-64
2022/07/16 07:13:15;;;;;;;335.80;318.45;;;;;;;20.63;48.76;97214.34;5073521;28;20638;-63
2022/07/16 07:15:42;;;;;;;396.00;374.27;;;;;;;21.87;46.46;97207.09;5073347;28;20189;-64
2022/07/16 07:18:08;;;;;;;362.88;343.77;;;;;;;22.16;45.05;97215.00;5073195;28;20205;-64
2022/07/16 07:20:33;;;;;;;330.70;313.73;;;;;;;21.73;45.92;97210.78;5055490;28;20193;-65
2022/07/16 07:22:59;;;;;;;305.67;290.10;;;;;;;21.85;45.76;97208.47;5055153;28;20193;-66
2022/07/16 07:25:24;;;;;;;278.55;264.15;;;;;;;21.14;47.09;97207.47;5072886;28;20188;-65
2022/07/16 07:27:49;;;;;;;343.70;325.17;;;;;;;21.10;47.77;97208.31;5069008;28;20215;-66
2022/07/16 07:30:15;;;;;;;368.08;348.42;;;;;;;21.59;45.26;97213.34;5072273;28;20650;-65
2022/07/16 07:32:40;;;;;;;298.10;282.55;;;;;;;21.44;45.47;97217.00;5071459;28;20264;-65
2022/07/16 07:35:06;;;;;;;317.70;301.00;;;;;;;21.36;46.10;97212.28;5072596;28;20598;-65
2022/07/16 07:37:32;;;;;;;388.92;367.85;;;;;;;21.18;46.74;97221.03;5072771;28;20593;-66
2022/07/16 07:39:57;;;;;;;350.85;332.08;;;;;;;21.42;45.29;97227.16;5072825;28;20541;-64
2022/07/16 07:42:23;;;;;;;366.70;347.25;;;;;;;21.12;46.00;97217.59;5072984;28;20184;-65
2022/07/16 07:44:48;;;;;;;361.98;343.05;;;;;;;21.83;44.48;97214.09;5071586;28;20269;-66
2022/07/16 07:47:14;;;;;;;267.33;253.65;;;;;;;21.46;44.93;97208.69;5054730;28;20597;-66
2022/07/16 07:49:39;;;;;;;236.70;224.65;;;;;;;21.42;43.79;97218.38;5072582;28;20239;-64
2022/07/16 07:52:06;;;;;;;186.60;177.35;;;;;;;21.03;44.31;97215.84;5072072;28;20193;-64
2022/07/16 07:54:32;;;;;;;156.05;148.07;;;;;;;21.36;44.09;97212.28;5072475;28;20286;-65
2022/07/16 07:56:57;;;;;;;165.10;156.65;;;;;;;21.12;44.64;97212.25;5071791;28;20617;-65
2022/07/16 07:59:23;;;;;;;163.00;154.73;;;;;;;21.73;43.52;97213.47;5069523;28;20250;-64
2022/07/16 08:01:48;;;;;;;162.35;153.85;;;;;;;21.02;44.14;97206.25;5071668;28;20214;-64
2022/07/16 08:04:13;;;;;;;148.07;140.43;;;;;;;21.51;42.75;97206.78;5072008;28;20189;-65
2022/07/16 08:06:39;;;;;;;99.97;94.45;;;;;;;21.27;42.69;97214.00;5072106;28;20189;-64
2022/07/16 08:09:04;;;;;;;109.68;103.93;;;;;;;22.16;41.73;97224.88;5072558;28;20288;-66
2022/07/16 08:11:30;;;;;;;85.55;81.15;;;;;;;22.06;40.86;97209.81;5072047;28;20204;-66
2022/07/16 08:13:55;;;;;;;81.57;77.03;;;;;;;21.66;41.64;97211.13;5072455;28;20637;-65
2022/07/16 08:16:20;;;;;;;171.18;162.88;;;;;;;22.03;38.95;97226.41;5071453;28;20185;-65
2022/07/16 08:18:46;;;;;;;305.20;290.63;;;;;;;21.77;39.98;97212.59;5071907;28;20204;-65
2022/07/16 08:21:11;;;;;;;310.13;295.48;;;;;;;22.19;39.17;97211.72;5071547;28;20213;-65
2022/07/16 08:26:21;;;;;;;159.80;152.15;;;;;;;21.26;38.90;97209.75;5072311;28;20191;-66
2022/07/16 08:28:46;;;;;;;447.17;425.85;;;;;;;21.29;39.87;97213.75;5072161;28;20184;-65
2022/07/16 08:31:13;;;;;;;104.65;99.05;;;;;;;21.01;42.29;97216.13;5071665;28;20304;-65
2022/07/16 08:33:39;;;;;;;394.88;375.63;;;;;;;21.53;39.87;97209.97;5072271;28;20272;-64
2022/07/16 08:36:04;;;;;;;307.00;292.05;;;;;;;21.92;39.58;97209.69;5071293;28;20264;-63
2022/07/16 08:38:29;;;;;;;364.95;347.50;;;;;;;22.51;38.94;97207.50;5071994;28;20568;-67
2022/07/16 08:40:55;;;;;;;284.30;270.77;;;;;;;22.51;37.92;97220.88;5072672;28;20212;-64
2022/07/16 08:43:22;;;;;;;138.02;131.18;;;;;;;21.86;38.61;97210.06;5071945;28;20185;-64
2022/07/16 08:45:47;;;;;;;144.48;137.40;;;;;;;21.68;38.87;97224.97;5072225;28;20595;-65
2022/07/16 08:48:13;;;;;;;137.77;131.15;;;;;;;21.56;39.10;97204.06;5072416;28;20268;-66
2022/07/16 08:50:39;;;;;;;133.30;126.88;;;;;;;20.99;39.72;97228.16;5072118;28;20595;-65
2022/07/16 08:53:07;;;;;;;204.82;195.00;;;;;;;20.93;40.06;97221.28;5072442;28;20181;-65
2022/07/16 08:55:36;;;;;;;449.38;427.55;;;;;;;21.07;40.94;97219.53;5071673;28;20623;-64
2022/07/16 08:58:02;;;;;;;433.88;412.95;;;;;;;21.65;39.54;97216.75;5053920;28;20205;-65
2022/07/16 09:00:27;;;;;;;447.98;426.40;;;;;;;21.24;40.12;97221.75;5071892;28;20183;-65
2022/07/16 09:02:54;;;;;;;160.27;152.45;;;;;;;21.91;40.45;97218.00;5069215;28;20193;-70
2022/07/16 09:05:19;;;;;;;295.30;280.95;;;;;;;21.61;39.06;97216.53;5071710;28;20185;-69
2022/07/16 09:07:45;;;;;;;355.60;338.67;;;;;;;22.55;38.73;97225.34;5071388;28;20196;-70
2022/07/16 09:10:11;;;;;;;185.85;177.10;;;;;;;22.19;38.06;97221.63;5071797;28;20213;-70
2022/07/16 09:12:42;;;;;;;321.02;305.48;;;;;;;22.31;37.92;97224.66;5054628;28;20209;-69
2022/07/16 09:15:29;;;;;;;488.63;464.88;;;;;;;21.63;37.64;97224.25;5071371;28;20227;-70
2022/07/16 09:18:09;;;;;;;428.63;407.88;;;;;;;21.68;37.47;97219.63;5071707;28;20201;-71
2022/07/16 09:20:37;;;;;;;462.48;440.58;;;;;;;22.16;37.68;97225.69;5065422;28;20181;-68
2022/07/16 09:23:02;;;;;;;511.48;486.52;;;;;;;21.60;37.18;97224.81;5071960;28;20280;-70
2022/07/16 09:25:28;;;;;;;344.20;328.08;;;;;;;21.53;37.24;97217.16;5071560;28;20189;-68
2022/07/16 09:27:58;;;;;;;293.90;280.13;;;;;;;21.46;37.46;97230.03;5074938;28;20181;-69
2022/07/16 09:30:24;;;;;;;446.10;425.08;;;;;;;21.52;37.85;97221.69;5075171;28;20186;-69
2022/07/16 09:32:49;;;;;;;371.10;353.77;;;;;;;22.31;36.12;97230.78;5075365;28;20196;-69
2022/07/16 09:35:16;;;;;;;253.18;241.05;;;;;;;22.36;36.18;97233.38;5075107;28;20182;-68
2022/07/16 09:37:54;;;;;;;201.50;191.93;;;;;;;21.90;36.56;97230.53;5075134;28;20217;-68
2022/07/16 09:40:37;;;;;;;120.15;114.25;;;;;;;21.43;37.28;97228.75;5057999;28;20193;-69
2022/07/16 09:43:24;;;;;;;223.70;212.95;;;;;;;21.78;37.49;97224.84;5065608;28;20177;-65
2022/07/16 09:45:57;;;;;;;225.13;214.60;;;;;;;21.94;36.63;97226.25;5075021;28;20201;-65
2022/07/16 09:48:28;;;;;;;44.03;41.83;;;;;;;21.65;36.33;97230.88;5055316;28;20186;-65
2022/07/16 09:50:56;;;;;;;285.63;271.73;;;;;;;22.09;35.81;97222.56;5055014;28;20262;-65
2022/07/16 09:53:25;;;;;;;77.47;73.55;;;;;;;21.95;35.78;97229.72;5054829;28;20185;-68
2022/07/16 09:55:59;;;;;;;94.53;89.75;;;;;;;22.23;36.68;97222.66;5055040;28;20230;-65
2022/07/16 09:58:25;;;;;;;84.85;80.55;;;;;;;21.91;36.79;97226.00;5065895;28;20196;-65
2022/07/16 10:00:51;;;;;;;51.58;49.03;;;;;;;21.58;36.88;97233.91;5073552;28;20177;-65
2022/07/16 10:03:17;;;;;;;41.65;39.22;;;;;;;21.59;36.55;97226.69;5074892;28;20536;-65
2022/07/16 10:05:42;;;;;;;35.38;33.40;;;;;;;21.62;36.82;97220.00;5056145;28;20212;-65
2022/07/16 10:08:08;;;;;;;65.25;61.95;;;;;;;21.92;36.67;97228.38;5075020;28;20181;-65
2022/07/16 10:10:33;;;;;;;168.48;160.45;;;;;;;22.19;36.88;97225.09;5074672;28;20201;-65
2022/07/16 10:12:59;;;;;;;172.60;164.43;;;;;;;22.55;36.62;97221.88;5073672;28;20212;-65
2022/07/16 10:15:25;;;;;;;274.75;261.55;;;;;;;22.81;36.74;97236.41;5073963;28;20214;-65
2022/07/16 10:17:50;;;;;;;94.53;89.78;;;;;;;22.27;35.01;97229.78;5073984;28;20209;-67
2022/07/16 10:20:19;;;;;;;39.45;37.30;;;;;;;22.64;35.80;97228.13;5056191;28;20269;-65
2022/07/16 10:22:47;;;;;;;43.95;41.53;;;;;;;22.54;35.52;97228.28;5073729;28;20193;-65
2022/07/16 10:25:19;;;;;;;46.03;43.70;;;;;;;22.56;35.63;97224.25;5074044;28;20196;-65
2022/07/16 10:27:45;;;;;;;45.00;42.60;;;;;;;22.78;35.87;97221.78;5073761;28;20216;-65
2022/07/16 10:30:21;;;;;;;46.15;43.80;;;;;;;22.71;36.10;97224.03;5073911;28;20185;-66
2022/07/16 10:32:59;;;;;;;40.63;38.47;;;;;;;22.50;36.64;97219.28;5073625;28;20565;-64
2022/07/16 10:35:47;;;;;;;55.42;52.55;;;;;;;22.46;35.67;97226.31;5073105;28;20192;-66
2022/07/16 10:38:21;;;;;;;57.63;54.63;;;;;;;22.85;35.96;97229.38;5054332;28;20677;-65
2022/07/16 10:41:04;;;;;;;51.38;48.25;;;;;;;21.89;36.94;97218.28;5073758;28;20182;-66
2022/07/16 10:43:30;;;;;;;37.47;35.33;;;;;;;22.13;36.71;97228.91;5056000;28;20196;-65
2022/07/16 10:46:01;;;;;;;41.90;39.70;;;;;;;22.38;35.84;97228.53;5056449;28;20181;-66
2022/07/16 10:48:54;;;;;;;48.92;46.30;;;;;;;22.17;36.48;97219.25;5074339;28;20177;-64
2022/07/16 10:51:21;;;;;;;61.28;58.20;;;;;;;22.24;35.49;97214.31;5049088;28;20331;-66
2022/07/16 10:53:56;;;;;;;70.30;66.82;;;;;;;22.12;35.98;97224.69;5073614;28;20316;-66
2022/07/16 10:56:30;;;;;;;47.80;44.85;;;;;;;22.41;35.87;97221.81;5073779;28;20181;-66
2022/07/16 10:58:56;;;;;;;58.10;55.05;;;;;;;22.59;35.59;97218.31;5073109;28;20236;-66
2022/07/16 11:01:22;;;;;;;72.93;69.30;;;;;;;22.32;35.49;97221.69;5062650;28;20276;-67
2022/07/16 11:03:51;;;;;;;85.95;81.65;;;;;;;22.49;35.55;97231.06;5053396;28;20182;-66
2022/07/16 11:06:21;;;;;;;179.45;170.82;;;;;;;21.91;35.31;97220.66;5067854;28;20193;-66
2022/07/16 11:08:53;;;;;;;167.52;159.55;;;;;;;22.01;35.56;97228.56;5073578;28;20216;-66
2022/07/16 11:11:19;;;;;;;145.63;138.60;;;;;;;22.36;34.80;97225.38;5055370;28;20173;-66